Time;durP1;ratioP1;P1;durP2;ratioP2;P2;SDS_P1;SDS_P2;PMS_P1;PMS_P2;Temp;Humidity;BMP_temperature;BMP_pressure;BME280_temperature;BME280_humidity;BME280_pressure;Samples;Min_cycle;Max_cycle;Signal;HPM_P1;HPM_P2
2023/05/04 00:01:10;;;;;;;4.73;4.33;;;10.80;99.90;;;;;;5039351;28;20204;-70
2023/05/04 00:03:38;;;;;;;5.10;4.45;;;11.00;99.90;;;;;;5041665;28;20542;-69
2023/05/04 00:06:04;;;;;;;5.93;4.97;;;10.60;99.90;;;;;;5028006;28;20273;-69
2023/05/04 00:08:30;;;;;;;5.57;5.03;;;10.80;99.90;;;;;;5044730;28;20199;-69
2023/05/04 00:10:56;;;;;;;5.25;4.72;;;10.80;99.90;;;;;;5040509;28;20211;-69
2023/05/04 00:13:22;;;;;;;4.80;4.30;;;10.70;99.90;;;;;;5043916;28;20195;-69
2023/05/04 00:15:47;;;;;;;5.77;5.17;;;10.70;99.90;;;;;;5024756;28;21219;-69
2023/05/04 00:18:13;;;;;;;4.40;4.00;;;10.60;99.90;;;;;;5040421;28;20206;-69
2023/05/04 00:20:38;;;;;;;6.70;5.07;;;10.60;99.90;;;;;;5044426;28;20307;-69
2023/05/04 00:23:04;;;;;;;6.70;5.03;;;10.70;99.90;;;;;;5038521;28;20624;-69
2023/05/04 00:25:29;;;;;;;5.00;4.50;;;10.50;99.90;;;;;;5024670;28;20287;-69
2023/05/04 00:27:55;;;;;;;5.37;4.87;;;10.60;99.90;;;;;;5042479;28;20183;-69
2023/05/04 00:30:21;;;;;;;5.30;4.80;;;10.40;99.90;;;;;;5041483;28;20255;-70
2023/05/04 00:32:46;;;;;;;5.23;4.73;;;10.50;99.90;;;;;;5025432;28;20915;-69
2023/05/04 00:35:12;;;;;;;5.83;5.20;;;10.60;99.90;;;;;;5039195;28;20234;-69
2023/05/04 00:37:38;;;;;;;4.97;4.47;;;10.30;99.90;;;;;;5048427;28;20638;-69
2023/05/04 00:40:04;;;;;;;5.87;5.10;;;10.30;99.90;;;;;;5044395;28;20921;-69
2023/05/04 00:42:29;;;;;;;6.03;5.43;;;10.20;99.90;;;;;;5048565;28;20207;-69
2023/05/04 00:44:55;;;;;;;7.60;4.83;;;10.30;99.90;;;;;;5044283;28;20198;-69
2023/05/04 00:47:21;;;;;;;5.70;5.20;;;10.30;99.90;;;;;;5045789;28;20214;-69
2023/05/04 00:49:47;;;;;;;5.55;5.05;;;10.20;99.90;;;;;;5047879;28;20585;-69
2023/05/04 00:52:15;;;;;;;5.30;4.70;;;10.30;99.90;;;;;;5046166;28;20200;-69
2023/05/04 00:54:42;;;;;;;5.35;4.70;;;10.10;99.90;;;;;;5046212;28;20195;-71
2023/05/04 00:57:08;;;;;;;5.80;4.90;;;10.30;99.90;;;;;;5054308;28;20266;-70
2023/05/04 00:59:33;;;;;;;5.00;4.50;;;10.20;99.90;;;;;;5049709;28;20629;-69
2023/05/04 01:01:59;;;;;;;5.97;4.40;;;10.20;99.90;;;;;;5043393;28;20561;-69
2023/05/04 01:04:25;;;;;;;6.47;4.80;;;10.30;99.90;;;;;;5043977;28;20223;-69
2023/05/04 01:07:13;;;;;;;6.15;4.72;;;10.20;99.90;;;;;;5043184;28;20553;-69
2023/05/04 01:09:45;;;;;;;7.80;4.68;;;10.10;99.90;;;;;;5042738;28;20235;-69
2023/05/04 01:12:24;;;;;;;4.82;4.40;;;10.10;99.90;;;;;;5043790;28;20221;-69
2023/05/04 01:14:52;;;;;;;5.80;4.97;;;10.00;99.90;;;;;;5043865;28;20887;-69
2023/05/04 01:17:18;;;;;;;5.38;4.90;;;10.10;99.90;;;;;;5046188;28;20211;-69
2023/05/04 01:19:44;;;;;;;5.73;5.20;;;10.10;99.90;;;;;;5045044;28;20210;-69
2023/05/04 01:22:09;;;;;;;5.23;4.60;;;10.10;99.90;;;;;;5029704;28;20181;-69
2023/05/04 01:24:35;;;;;;;7.13;5.00;;;10.20;99.90;;;;;;5042660;28;20555;-69
2023/05/04 01:27:36;;;;;;;5.87;4.20;;;10.00;99.90;;;;;;5048360;28;20180;-69
2023/05/04 01:30:12;;;;;;;6.82;5.10;;;10.10;99.90;;;;;;5028950;28;21131;-69
2023/05/04 01:32:40;;;;;;;4.90;4.40;;;10.00;99.90;;;;;;5045233;28;20229;-69
2023/05/04 01:35:06;;;;;;;5.25;4.75;;;10.30;99.90;;;;;;5046318;28;20290;-69
2023/05/04 01:37:33;;;;;;;5.15;4.65;;;9.90;99.90;;;;;;5043955;28;20204;-69
2023/05/04 01:39:58;;;;;;;6.72;5.30;;;9.90;99.90;;;;;;5043037;28;20207;-69
2023/05/04 01:42:24;;;;;;;7.07;5.43;;;9.90;99.90;;;;;;5024153;28;20198;-69
2023/05/04 01:44:50;;;;;;;7.73;5.20;;;9.90;99.90;;;;;;5024428;28;20190;-68
2023/05/04 01:47:16;;;;;;;6.63;5.60;;;10.00;99.90;;;;;;5043584;28;20195;-69
2023/05/04 01:49:41;;;;;;;5.63;5.10;;;9.90;99.90;;;;;;5049756;28;20238;-69
2023/05/04 01:52:07;;;;;;;5.63;5.10;;;10.00;99.90;;;;;;5046266;28;20199;-69
2023/05/04 01:54:33;;;;;;;7.30;5.70;;;9.90;99.90;;;;;;5044563;28;20188;-69
2023/05/04 01:56:58;;;;;;;7.57;5.70;;;9.80;99.90;;;;;;5026318;28;20687;-69
2023/05/04 01:59:24;;;;;;;6.33;5.73;;;9.70;99.90;;;;;;5041849;28;20241;-69
2023/05/04 02:01:49;;;;;;;5.63;5.13;;;9.70;99.90;;;;;;5043842;28;20183;-69
2023/05/04 02:04:15;;;;;;;6.57;5.30;;;9.70;99.90;;;;;;5044782;28;20172;-69
2023/05/04 02:06:40;;;;;;;6.87;5.60;;;9.90;99.90;;;;;;5043696;28;20190;-69
2023/05/04 02:09:06;;;;;;;6.37;5.77;;;9.80;99.90;;;;;;5040695;28;20698;-69
2023/05/04 02:11:32;;;;;;;6.10;5.50;;;9.90;99.90;;;;;;5046395;28;20477;-69
2023/05/04 02:13:58;;;;;;;9.10;6.05;;;9.90;99.90;;;;;;5043838;28;20180;-69
2023/05/04 02:16:23;;;;;;;5.30;4.80;;;10.00;99.90;;;;;;5040576;28;20199;-69
2023/05/04 02:18:49;;;;;;;6.93;5.93;;;9.60;99.90;;;;;;5028300;28;20180;-69
2023/05/04 02:21:14;;;;;;;6.33;5.73;;;9.90;99.90;;;;;;5026001;28;20198;-69
2023/05/04 02:23:40;;;;;;;6.90;6.17;;;9.90;99.90;;;;;;5045833;28;20176;-69
2023/05/04 02:26:06;;;;;;;6.67;6.07;;;9.70;99.90;;;;;;5048473;28;20191;-69
2023/05/04 02:28:31;;;;;;;6.40;5.80;;;9.80;99.90;;;;;;5044924;28;20187;-69
2023/05/04 02:30:57;;;;;;;9.50;6.07;;;9.50;99.90;;;;;;5045684;28;20685;-68
2023/05/04 02:33:22;;;;;;;7.60;6.77;;;9.80;99.90;;;;;;5045443;28;20279;-69
2023/05/04 02:35:48;;;;;;;7.90;6.90;;;9.70;99.90;;;;;;5044785;28;20261;-69
2023/05/04 02:38:14;;;;;;;8.37;7.43;;;9.50;99.90;;;;;;5025016;28;20248;-69
2023/05/04 02:40:40;;;;;;;7.53;6.13;;;9.60;99.90;;;;;;5038030;28;20199;-69
2023/05/04 02:43:06;;;;;;;6.93;6.30;;;9.70;99.90;;;;;;5028748;28;20244;-69
2023/05/04 02:45:31;;;;;;;8.53;6.50;;;9.50;99.90;;;;;;5039967;28;20271;-69
2023/05/04 02:47:57;;;;;;;7.33;6.63;;;9.60;99.90;;;;;;5045526;28;20194;-69
2023/05/04 02:50:22;;;;;;;7.73;6.77;;;9.50;99.90;;;;;;5038216;28;20266;-69
2023/05/04 02:52:48;;;;;;;6.40;5.73;;;9.00;99.90;;;;;;5041772;28;20193;-69
2023/05/04 02:55:15;;;;;;;8.00;7.20;;;9.20;99.90;;;;;;5041218;28;20266;-69
2023/05/04 02:57:41;;;;;;;7.72;6.93;;;9.60;99.90;;;;;;5021434;28;20752;-69
2023/05/04 03:00:07;;;;;;;7.37;6.53;;;9.50;99.90;;;;;;5039615;28;20207;-69
2023/05/04 03:02:32;;;;;;;9.02;7.15;;;9.50;99.90;;;;;;5043796;28;20186;-69
2023/05/04 03:04:58;;;;;;;8.10;7.30;;;9.50;99.90;;;;;;5041746;28;20222;-69
2023/05/04 03:07:24;;;;;;;9.03;8.13;;;9.70;99.90;;;;;;5044399;28;20201;-68
2023/05/04 03:09:50;;;;;;;8.63;7.32;;;9.20;99.90;;;;;;5038014;28;20593;-69
2023/05/04 03:12:15;;;;;;;8.13;6.87;;;9.10;99.90;;;;;;5041893;28;20216;-69
2023/05/04 03:14:41;;;;;;;8.20;7.40;;;9.20;99.90;;;;;;5045030;28;20603;-69
2023/05/04 03:17:06;;;;;;;9.23;8.33;;;8.90;99.90;;;;;;5022784;28;20260;-69
2023/05/04 03:19:32;;;;;;;12.10;10.87;;;9.40;99.90;;;;;;5023054;28;20763;-69
2023/05/04 03:21:58;;;;;;;9.27;7.80;;;9.30;99.90;;;;;;5026284;28;20709;-68
2023/05/04 03:24:24;;;;;;;9.20;8.20;;;9.10;99.90;;;;;;5042940;28;20217;-69
2023/05/04 03:26:49;;;;;;;9.27;7.70;;;9.10;99.90;;;;;;5043499;28;20911;-69
2023/05/04 03:29:15;;;;;;;9.33;7.97;;;9.20;99.90;;;;;;5043848;28;20203;-69
2023/05/04 03:31:41;;;;;;;9.30;8.40;;;9.30;99.90;;;;;;5041562;28;20186;-69
2023/05/04 03:34:08;;;;;;;9.53;8.60;;;9.20;99.90;;;;;;5044127;28;20193;-68
2023/05/04 03:36:34;;;;;;;8.82;7.93;;;9.20;99.90;;;;;;5044716;28;21940;-69
2023/05/04 03:39:00;;;;;;;12.43;8.37;;;8.90;99.90;;;;;;5039693;28;20206;-69
2023/05/04 03:41:25;;;;;;;10.63;8.90;;;9.50;99.90;;;;;;5043893;28;20456;-69
2023/05/04 03:43:51;;;;;;;10.43;8.37;;;9.00;99.90;;;;;;5024534;28;20183;-69
2023/05/04 03:46:16;;;;;;;9.03;7.90;;;9.00;99.90;;;;;;5025396;28;20545;-69
2023/05/04 03:48:42;;;;;;;10.57;8.70;;;9.20;99.90;;;;;;5046560;28;20188;-69
2023/05/04 03:51:07;;;;;;;11.87;8.00;;;9.10;99.90;;;;;;5046758;28;20298;-68
2023/05/04 03:53:34;;;;;;;10.60;8.03;;;9.30;99.90;;;;;;5041026;28;20243;-69
2023/05/04 03:56:00;;;;;;;11.07;8.73;;;9.00;99.90;;;;;;5038202;28;20256;-69
2023/05/04 03:58:26;;;;;;;9.60;8.20;;;9.20;99.90;;;;;;5035634;28;20193;-69
2023/05/04 04:00:51;;;;;;;9.47;8.47;;;9.10;99.90;;;;;;5045088;28;20209;-69
2023/05/04 04:03:17;;;;;;;10.10;9.10;;;8.90;99.90;;;;;;5041486;28;20209;-70
2023/05/04 04:05:43;;;;;;;10.10;9.13;;;9.00;99.90;;;;;;5041908;28;20254;-70
2023/05/04 04:08:09;;;;;;;10.17;9.10;;;8.80;99.90;;;;;;5043057;28;20773;-69
2023/05/04 04:10:34;;;;;;;9.97;8.97;;;9.10;99.90;;;;;;5045159;28;20205;-69
2023/05/04 04:13:00;;;;;;;12.50;9.50;;;9.10;99.90;;;;;;5039606;28;20179;-70
2023/05/04 04:15:26;;;;;;;12.77;9.70;;;8.90;99.90;;;;;;5039110;28;20460;-69
2023/05/04 04:17:52;;;;;;;10.30;8.33;;;9.10;99.90;;;;;;5048256;28;20451;-71
2023/05/04 04:20:17;;;;;;;10.40;8.17;;;9.00;99.90;;;;;;5023280;28;20687;-69
2023/05/04 04:22:43;;;;;;;12.40;9.67;;;9.10;99.90;;;;;;5042536;28;20188;-70
2023/05/04 04:25:09;;;;;;;11.37;9.03;;;8.80;99.90;;;;;;5047340;28;20199;-69
2023/05/04 04:27:35;;;;;;;12.73;9.50;;;9.00;99.90;;;;;;5044405;28;20835;-70
2023/05/04 04:30:02;;;;;;;10.10;8.70;;;9.20;99.90;;;;;;5018696;28;20286;-70
2023/05/04 04:32:28;;;;;;;12.13;9.27;;;9.20;99.90;;;;;;5044339;28;20272;-76
2023/05/04 04:34:54;;;;;;;12.77;9.43;;;9.20;99.90;;;;;;5037466;28;20270;-75
2023/05/04 04:37:20;;;;;;;11.07;9.23;;;9.10;99.90;;;;;;5032352;28;20455;-72
2023/05/04 04:39:45;;;;;;;11.10;8.80;;;8.50;99.90;;;;;;5022898;28;20205;-76
2023/05/04 04:42:12;;;;;;;14.13;9.67;;;8.90;99.90;;;;;;5054995;28;20281;-71
2023/05/04 04:44:38;;;;;;;14.40;10.50;;;9.50;99.90;;;;;;5040002;28;20276;-66
2023/05/04 04:47:03;;;;;;;12.13;10.73;;;8.90;99.90;;;;;;5038712;28;20653;-66
2023/05/04 04:49:29;;;;;;;11.50;10.27;;;9.00;99.90;;;;;;5041986;28;20436;-67
2023/05/04 04:51:55;;;;;;;14.43;10.17;;;9.20;99.90;;;;;;5035117;28;20276;-70
2023/05/04 04:54:20;;;;;;;11.57;10.40;;;9.10;99.90;;;;;;5041317;28;20219;-72
2023/05/04 04:56:46;;;;;;;11.67;10.47;;;9.40;99.90;;;;;;5037339;28;20214;-72
2023/05/04 04:59:12;;;;;;;11.27;10.13;;;9.30;99.90;;;;;;5036153;28;20271;-70
2023/05/04 05:01:38;;;;;;;12.23;10.82;;;9.30;99.90;;;;;;5020036;28;20195;-68
2023/05/04 05:04:04;;;;;;;10.70;9.33;;;9.40;99.90;;;;;;5040374;28;20865;-70
2023/05/04 05:06:30;;;;;;;11.63;9.82;;;9.20;99.90;;;;;;5026108;28;20192;-71
2023/05/04 05:08:55;;;;;;;14.03;11.03;;;9.50;99.90;;;;;;5040480;28;20555;-70
2023/05/04 05:11:21;;;;;;;11.97;9.90;;;9.70;99.90;;;;;;5046850;28;20214;-75
2023/05/04 05:13:47;;;;;;;11.07;9.70;;;9.60;99.90;;;;;;5048348;28;20221;-73
2023/05/04 05:16:12;;;;;;;11.43;10.23;;;9.60;99.90;;;;;;5045341;28;20229;-75
2023/05/04 05:18:38;;;;;;;11.00;9.90;;;9.60;99.90;;;;;;5035970;28;20181;-74
2023/05/04 05:21:04;;;;;;;12.30;9.73;;;10.00;99.90;;;;;;5025374;28;21668;-73
2023/05/04 05:23:30;;;;;;;12.07;10.10;;;9.70;99.90;;;;;;5056976;28;20294;-75
2023/05/04 05:25:56;;;;;;;13.55;10.30;;;9.90;99.90;;;;;;5046708;28;20559;-60
2023/05/04 05:28:22;;;;;;;14.32;11.00;;;10.20;99.90;;;;;;5039261;28;20185;-60
2023/05/04 05:30:48;;;;;;;11.10;9.30;;;10.20;99.90;;;;;;5033211;28;20212;-60
2023/05/04 05:33:14;;;;;;;13.15;10.90;;;10.30;99.90;;;;;;5040801;28;20445;-60
2023/05/04 05:35:39;;;;;;;11.90;9.97;;;10.40;99.90;;;;;;5039422;28;20184;-61
2023/05/04 05:38:05;;;;;;;15.03;9.70;;;10.60;99.90;;;;;;5044213;28;20189;-60
2023/05/04 05:40:31;;;;;;;11.80;10.07;;;10.50;99.90;;;;;;5040107;28;20673;-59
2023/05/04 05:42:57;;;;;;;11.93;9.53;;;10.70;99.90;;;;;;5038998;28;20292;-68
2023/05/04 05:45:22;;;;;;;11.67;10.47;;;10.90;99.90;;;;;;5037166;28;20447;-69
2023/05/04 05:47:48;;;;;;;12.43;10.17;;;11.00;99.90;;;;;;5020913;28;20572;-69
2023/05/04 05:50:14;;;;;;;12.30;10.38;;;11.00;99.90;;;;;;5042955;28;20346;-66
2023/05/04 05:52:40;;;;;;;12.73;11.17;;;11.10;99.90;;;;;;5042595;28;20227;-68
2023/05/04 05:55:05;;;;;;;11.93;10.80;;;11.00;99.90;;;;;;5051194;28;20216;-70
2023/05/04 05:57:31;;;;;;;11.40;10.00;;;11.40;99.90;;;;;;5030124;28;20214;-72
2023/05/04 05:59:57;;;;;;;13.47;9.97;;;11.50;99.90;;;;;;5046074;28;20464;-67
2023/05/04 06:02:22;;;;;;;11.50;10.40;;;11.90;99.90;;;;;;5047433;28;20196;-67
2023/05/04 06:04:48;;;;;;;14.93;10.80;;;12.00;99.90;;;;;;5041866;28;20230;-67
2023/05/04 06:07:14;;;;;;;11.87;9.80;;;12.10;99.90;;;;;;5044774;28;20458;-67
2023/05/04 06:09:40;;;;;;;11.63;10.20;;;12.60;99.90;;;;;;5038890;28;20212;-69
2023/05/04 06:12:11;;;;;;;14.80;12.07;;;12.90;99.90;;;;;;5045453;28;20220;-68
2023/05/04 06:14:37;;;;;;;10.98;9.95;;;13.10;99.90;;;;;;5041136;28;20440;-69
2023/05/04 06:17:02;;;;;;;12.38;11.13;;;13.60;99.90;;;;;;5039922;28;20216;-68
2023/05/04 06:19:28;;;;;;;10.80;9.70;;;13.60;99.90;;;;;;5049226;28;20202;-78
2023/05/04 06:21:54;;;;;;;13.50;11.27;;;13.60;99.90;;;;;;5045695;28;20182;-73
2023/05/04 06:24:21;;;;;;;13.23;11.87;;;13.70;99.90;;;;;;5037450;28;20277;-72
2023/05/04 06:26:46;;;;;;;14.65;11.98;;;13.40;99.90;;;;;;5033124;28;20198;-72
2023/05/04 06:29:12;;;;;;;11.97;10.73;;;13.40;99.90;;;;;;5027964;28;20210;-70
2023/05/04 06:31:38;;;;;;;12.90;11.40;;;13.70;99.90;;;;;;5039266;28;20189;-70
2023/05/04 06:34:03;;;;;;;12.77;10.90;;;13.50;99.90;;;;;;5044679;28;20200;-70
2023/05/04 06:36:29;;;;;;;15.10;12.23;;;14.10;99.90;;;;;;5049163;28;20549;-70
2023/05/04 06:38:57;;;;;;;11.60;10.40;;;14.30;99.90;;;;;;5047575;28;20681;-72
2023/05/04 06:41:23;;;;;;;12.50;11.13;;;14.70;99.90;;;;;;5029028;28;20197;-70
2023/05/04 06:43:48;;;;;;;12.02;10.45;;;15.10;99.10;;;;;;5036143;28;20224;-64
2023/05/04 06:46:14;;;;;;;11.53;10.30;;;15.90;98.70;;;;;;5037440;28;20328;-66
2023/05/04 06:48:40;;;;;;;11.80;10.50;;;16.00;97.40;;;;;;5038322;28;20303;-65
2023/05/04 06:51:06;;;;;;;12.50;10.90;;;16.00;96.50;;;;;;5035985;28;20746;-67
2023/05/04 06:53:31;;;;;;;12.03;10.83;;;16.20;96.20;;;;;;5040514;28;20609;-67
2023/05/04 06:55:57;;;;;;;15.00;10.83;;;17.00;95.70;;;;;;5041129;28;20194;-69
2023/05/04 06:58:22;;;;;;;14.67;10.33;;;17.40;94.50;;;;;;5027007;28;20193;-68
2023/05/04 07:00:48;;;;;;;12.60;10.17;;;17.90;93.30;;;;;;5047888;28;20709;-69
2023/05/04 07:03:13;;;;;;;15.23;11.13;;;19.50;92.00;;;;;;5050384;28;20186;-71
2023/05/04 07:05:39;;;;;;;11.97;10.00;;;21.70;86.30;;;;;;5039430;28;20182;-68
2023/05/04 07:08:05;;;;;;;13.43;8.93;;;22.80;78.50;;;;;;5038893;28;20182;-66
2023/05/04 07:10:31;;;;;;;12.47;9.80;;;24.90;73.50;;;;;;5039644;28;20478;-65
2023/05/04 07:12:57;;;;;;;10.60;9.50;;;27.50;65.30;;;;;;5027077;28;20469;-69
2023/05/04 07:15:23;;;;;;;10.37;8.83;;;29.80;57.00;;;;;;5044210;28;20540;-70
2023/05/04 07:17:49;;;;;;;9.73;8.93;;;30.50;51.90;;;;;;5047661;28;21081;-73
2023/05/04 07:20:14;;;;;;;9.60;8.70;;;32.00;49.70;;;;;;5035415;28;20262;-72
2023/05/04 07:22:40;;;;;;;9.57;8.77;;;33.50;46.60;;;;;;5040660;28;20194;-71
2023/05/04 07:25:07;;;;;;;10.50;9.43;;;34.10;43.50;;;;;;5048584;28;20180;-71
2023/05/04 07:27:36;;;;;;;10.63;9.53;;;35.00;41.70;;;;;;5050874;28;20474;-71
2023/05/04 07:30:02;;;;;;;11.77;10.57;;;35.50;39.90;;;;;;5044888;28;20524;-72
2023/05/04 07:32:28;;;;;;;11.30;10.20;;;34.20;39.50;;;;;;5039912;28;20443;-70
2023/05/04 07:34:53;;;;;;;11.03;10.03;;;32.10;40.70;;;;;;5049685;28;20806;-70
2023/05/04 07:37:19;;;;;;;11.50;9.83;;;31.60;42.00;;;;;;5030045;28;20208;-69
2023/05/04 07:39:45;;;;;;;11.70;10.53;;;32.30;41.60;;;;;;5046563;28;20243;-70
2023/05/04 07:42:10;;;;;;;12.90;10.70;;;32.10;41.90;;;;;;5036091;28;20228;-70
2023/05/04 07:44:36;;;;;;;9.30;8.30;;;31.30;41.80;;;;;;5047922;28;20202;-68
2023/05/04 07:47:02;;;;;;;12.97;11.27;;;31.00;42.10;;;;;;5037742;28;20560;-68
2023/05/04 07:49:27;;;;;;;10.57;9.67;;;30.50;43.10;;;;;;5041359;28;20213;-68
2023/05/04 07:51:53;;;;;;;9.13;8.40;;;30.90;43.50;;;;;;5048843;28;20658;-68
2023/05/04 07:54:21;;;;;;;11.57;10.40;;;30.30;42.90;;;;;;5034141;28;20216;-68
2023/05/04 07:56:46;;;;;;;9.60;8.80;;;29.50;44.40;;;;;;5035449;28;20252;-65
2023/05/04 07:59:12;;;;;;;8.60;8.00;;;30.20;44.40;;;;;;5035369;28;20460;-62
2023/05/04 08:01:37;;;;;;;9.10;8.30;;;30.00;42.80;;;;;;5036289;28;20188;-68
2023/05/04 08:04:03;;;;;;;8.90;7.93;;;29.80;43.30;;;;;;5025109;28;20196;-66
2023/05/04 08:06:28;;;;;;;8.70;8.03;;;30.00;43.00;;;;;;5040967;28;20643;-66
2023/05/04 08:08:54;;;;;;;8.17;7.57;;;29.70;43.00;;;;;;5039285;28;20737;-66
2023/05/04 08:11:20;;;;;;;8.07;7.37;;;29.30;42.60;;;;;;5037709;28;20680;-65
2023/05/04 08:13:49;;;;;;;8.83;6.97;;;29.30;43.50;;;;;;5040251;28;20190;-65
2023/05/04 08:16:15;;;;;;;7.23;6.63;;;30.40;42.90;;;;;;5017688;28;20747;-62
2023/05/04 08:18:41;;;;;;;7.67;6.97;;;29.90;42.20;;;;;;5039303;28;20492;-62
2023/05/04 08:21:07;;;;;;;7.20;6.60;;;28.80;43.40;;;;;;5033677;28;20480;-61
2023/05/04 08:23:32;;;;;;;6.87;6.27;;;28.30;43.80;;;;;;5040512;28;20448;-63
2023/05/04 08:26:01;;;;;;;6.63;6.13;;;29.00;43.90;;;;;;5039323;28;20222;-60
2023/05/04 08:28:28;;;;;;;6.87;6.27;;;29.00;43.10;;;;;;5036558;28;20194;-64
2023/05/04 08:30:53;;;;;;;7.23;6.73;;;29.10;42.70;;;;;;5038494;28;20471;-65
2023/05/04 08:33:19;;;;;;;6.43;5.90;;;29.50;42.00;;;;;;5039182;28;20437;-64
2023/05/04 08:35:44;;;;;;;6.53;6.03;;;28.50;42.00;;;;;;5036818;28;20188;-63
2023/05/04 08:38:10;;;;;;;6.70;6.20;;;28.50;42.50;;;;;;5039954;28;20279;-67
2023/05/04 08:40:40;;;;;;;6.43;5.90;;;29.20;42.20;;;;;;5041614;28;20218;-66
2023/05/04 08:43:06;;;;;;;6.40;5.87;;;28.80;41.70;;;;;;5033344;28;20197;-66
2023/05/04 08:45:36;;;;;;;6.47;5.93;;;28.50;42.20;;;;;;5037600;28;20538;-63
2023/05/04 08:48:02;;;;;;;6.37;5.90;;;28.90;42.00;;;;;;5036187;28;20454;-61
2023/05/04 08:50:28;;;;;;;5.80;5.30;;;29.70;40.70;;;;;;5041704;28;20976;-63
2023/05/04 08:52:55;;;;;;;6.30;5.70;;;29.50;41.20;;;;;;5039000;28;20451;-65
2023/05/04 08:55:21;;;;;;;5.83;5.43;;;30.20;40.30;;;;;;5037572;28;20181;-65
2023/05/04 08:57:48;;;;;;;6.80;6.20;;;30.30;39.70;;;;;;5042750;28;20471;-66
2023/05/04 09:00:16;;;;;;;7.27;6.57;;;30.90;39.00;;;;;;5039835;28;20209;-63
2023/05/04 09:02:44;;;;;;;5.73;5.33;;;30.80;38.60;;;;;;5036232;28;20439;-64
2023/05/04 09:05:10;;;;;;;5.30;4.90;;;31.50;37.40;;;;;;5040048;28;20443;-64
2023/05/04 09:07:36;;;;;;;6.00;5.60;;;31.40;37.10;;;;;;5040243;28;20435;-61
2023/05/04 09:10:03;;;;;;;6.20;5.80;;;31.70;36.70;;;;;;5039610;28;20529;-62
2023/05/04 09:12:28;;;;;;;8.03;6.30;;;31.90;36.30;;;;;;5038348;28;20269;-61
2023/05/04 09:14:54;;;;;;;5.67;5.17;;;31.30;37.30;;;;;;5037439;28;20544;-60
2023/05/04 09:17:28;;;;;;;5.47;5.07;;;32.00;36.50;;;;;;5044726;28;20220;-60
2023/05/04 09:20:01;;;;;;;5.72;5.10;;;32.00;36.20;;;;;;5046660;28;20544;-64
2023/05/04 09:22:27;;;;;;;5.77;5.17;;;32.00;36.20;;;;;;5039886;28;20190;-64
2023/05/04 09:25:03;;;;;;;6.23;5.60;;;32.10;36.10;;;;;;5038798;28;20517;-65
2023/05/04 09:27:31;;;;;;;7.10;5.63;;;32.30;36.00;;;;;;5039029;28;20443;-64
2023/05/04 09:29:57;;;;;;;5.70;5.10;;;31.40;36.60;;;;;;5042034;28;20460;-65
2023/05/04 09:32:23;;;;;;;6.00;5.57;;;31.80;36.20;;;;;;5046858;28;20454;-65
2023/05/04 09:34:52;;;;;;;6.33;5.93;;;31.10;36.50;;;;;;5044582;28;20263;-65
2023/05/04 09:37:20;;;;;;;6.00;5.60;;;30.80;36.90;;;;;;5047762;28;20208;-65
2023/05/04 09:39:54;;;;;;;6.43;5.93;;;30.40;37.80;;;;;;5042645;28;20463;-65
2023/05/04 09:42:20;;;;;;;6.30;5.70;;;30.50;37.40;;;;;;5045666;28;20532;-65
2023/05/04 09:44:57;;;;;;;5.63;5.20;;;30.30;37.70;;;;;;5046809;28;20521;-65
2023/05/04 09:47:31;;;;;;;6.60;6.00;;;29.80;38.20;;;;;;5042424;28;20457;-65
2023/05/04 09:49:57;;;;;;;5.90;5.50;;;29.30;38.20;;;;;;5035289;28;20464;-65
2023/05/04 09:52:26;;;;;;;5.87;5.27;;;29.20;38.80;;;;;;5049798;28;20442;-65
2023/05/04 09:54:53;;;;;;;5.03;4.63;;;29.30;39.30;;;;;;5024492;28;20439;-64
2023/05/04 09:57:22;;;;;;;5.50;5.00;;;30.50;37.70;;;;;;5040005;28;20499;-64
2023/05/04 09:59:48;;;;;;;4.90;4.60;;;30.10;37.40;;;;;;5046383;28;20469;-64
2023/05/04 10:02:14;;;;;;;7.40;6.70;;;29.60;38.60;;;;;;5041072;28;20449;-64
2023/05/04 10:04:42;;;;;;;5.33;4.93;;;29.70;38.50;;;;;;5047463;28;20431;-64
2023/05/04 10:07:08;;;;;;;5.60;5.10;;;28.90;37.60;;;;;;5045072;28;20621;-64
2023/05/04 10:09:33;;;;;;;5.57;5.17;;;28.60;39.10;;;;;;5045140;28;20509;-64
2023/05/04 10:12:00;;;;;;;6.33;5.17;;;28.20;39.40;;;;;;5042914;28;20443;-64
2023/05/04 10:14:35;;;;;;;5.20;4.80;;;28.20;40.70;;;;;;5045917;28;20245;-64
2023/05/04 10:17:46;;;;;;;4.77;4.37;;;28.00;40.30;;;;;;5042052;28;20536;-64
2023/05/04 10:20:45;;;;;;;5.60;5.20;;;28.00;38.60;;;;;;4962852;28;20599;-64
2023/05/04 10:23:29;;;;;;;5.83;5.40;;;27.90;37.90;;;;;;4949000;28;20454;-64
2023/05/04 10:26:08;;;;;;;4.73;4.33;;;27.50;38.50;;;;;;5027278;28;20503;-64
2023/05/04 10:28:39;;;;;;;5.00;4.60;;;27.70;38.50;;;;;;5039193;28;20438;-65
2023/05/04 10:31:06;;;;;;;5.07;4.60;;;27.90;38.60;;;;;;5043302;28;20472;-64
2023/05/04 10:33:42;;;;;;;5.40;5.00;;;28.20;38.90;;;;;;5038594;28;20514;-64
2023/05/04 10:36:09;;;;;;;4.53;4.23;;;27.70;38.30;;;;;;5045129;28;21062;-64
2023/05/04 10:38:35;;;;;;;4.53;3.60;;;27.80;39.20;;;;;;5043884;28;20447;-64
2023/05/04 10:41:12;;;;;;;5.17;4.67;;;27.70;38.70;;;;;;5040142;28;20462;-64
2023/05/04 10:43:38;;;;;;;5.47;4.97;;;27.60;38.00;;;;;;5046631;28;20442;-64
2023/05/04 10:46:23;;;;;;;5.20;4.80;;;27.40;38.50;;;;;;5038680;28;20973;-64
2023/05/04 10:48:50;;;;;;;5.50;5.00;;;27.80;37.70;;;;;;5043331;28;20180;-63
2023/05/04 10:51:21;;;;;;;5.57;5.10;;;27.80;37.70;;;;;;5047743;28;20900;-63
2023/05/04 10:53:47;;;;;;;5.43;5.03;;;27.40;38.00;;;;;;5037274;28;20503;-64
2023/05/04 10:56:27;;;;;;;4.40;4.10;;;27.20;38.20;;;;;;5041182;28;20471;-64
2023/05/04 10:58:53;;;;;;;4.90;4.40;;;27.00;39.60;;;;;;5044219;28;20526;-64
2023/05/04 11:01:20;;;;;;;4.93;4.53;;;27.40;38.20;;;;;;5039614;28;20497;-65
2023/05/04 11:03:50;;;;;;;4.47;4.17;;;27.40;37.90;;;;;;5041444;28;20451;-64
2023/05/04 11:06:20;;;;;;;4.60;4.20;;;27.00;38.50;;;;;;5035214;28;20460;-63
2023/05/04 11:08:48;;;;;;;5.50;5.10;;;27.50;38.40;;;;;;5035866;28;20846;-63
2023/05/04 11:11:14;;;;;;;5.30;4.90;;;28.10;37.80;;;;;;5041945;28;20560;-63
2023/05/04 11:13:47;;;;;;;4.83;4.43;;;28.10;37.70;;;;;;5037280;28;20442;-63
2023/05/04 11:16:21;;;;;;;4.90;4.60;;;28.20;37.60;;;;;;5035395;28;20866;-64
2023/05/04 11:18:46;;;;;;;5.13;4.73;;;27.90;37.70;;;;;;5040810;28;20471;-64
2023/05/04 11:21:21;;;;;;;5.30;4.80;;;28.40;38.20;;;;;;5034526;28;20495;-63
2023/05/04 11:23:53;;;;;;;5.40;5.00;;;28.90;37.30;;;;;;5035827;28;20236;-64
2023/05/04 11:26:19;;;;;;;5.27;4.77;;;29.30;36.60;;;;;;5037161;28;20971;-65
2023/05/04 11:28:45;;;;;;;4.63;4.23;;;29.20;36.20;;;;;;5024423;28;20435;-65
2023/05/04 11:31:12;;;;;;;5.37;4.87;;;29.40;35.70;;;;;;5035397;28;20342;-62
2023/05/04 11:33:43;;;;;;;4.20;3.90;;;29.20;35.60;;;;;;5036591;28;20486;-62
2023/05/04 11:36:10;;;;;;;4.70;4.30;;;29.40;35.40;;;;;;5035370;28;20459;-64
2023/05/04 11:38:36;;;;;;;4.43;4.13;;;30.00;35.30;;;;;;5041483;28;20451;-62
2023/05/04 11:41:02;;;;;;;4.73;4.33;;;30.40;34.90;;;;;;5038697;28;20465;-61
2023/05/04 11:43:28;;;;;;;5.03;4.63;;;30.30;34.50;;;;;;5031305;28;20532;-60
2023/05/04 11:45:54;;;;;;;5.10;4.30;;;29.60;35.30;;;;;;5039256;28;20194;-61
2023/05/04 11:48:20;;;;;;;4.83;4.43;;;29.30;35.10;;;;;;5038032;28;20453;-60
2023/05/04 11:50:46;;;;;;;5.40;4.90;;;29.10;35.70;;;;;;5039542;28;20547;-60
2023/05/04 11:53:13;;;;;;;5.17;4.77;;;28.90;35.50;;;;;;5041598;28;20708;-59
2023/05/04 11:55:40;;;;;;;4.90;4.50;;;28.50;36.20;;;;;;5037866;28;20611;-59
2023/05/04 11:58:10;;;;;;;5.27;4.77;;;27.90;37.10;;;;;;5037398;28;20490;-60
2023/05/04 12:00:39;;;;;;;5.40;5.00;;;27.60;37.80;;;;;;5038239;28;22137;-59
2023/05/04 12:03:27;;;;;;;4.47;4.17;;;27.00;38.90;;;;;;5039834;28;20953;-59
2023/05/04 12:05:55;;;;;;;5.03;4.63;;;26.60;40.00;;;;;;5024186;28;22005;-62
2023/05/04 12:08:33;;;;;;;4.70;4.30;;;26.50;40.10;;;;;;5034389;28;20446;-60
2023/05/04 12:11:24;;;;;;;4.97;4.57;;;26.40;39.40;;;;;;5039598;28;20830;-61
2023/05/04 12:14:08;;;;;;;4.87;4.50;;;26.20;39.70;;;;;;5040259;28;20939;-64
2023/05/04 12:16:35;;;;;;;7.43;5.17;;;26.10;40.10;;;;;;5041148;28;20479;-61
2023/05/04 12:19:12;;;;;;;4.77;4.30;;;25.70;40.40;;;;;;5038958;28;20452;-62
2023/05/04 12:21:50;;;;;;;5.13;4.63;;;25.60;41.60;;;;;;5037358;28;20526;-62
2023/05/04 12:24:16;;;;;;;5.47;4.97;;;25.90;41.80;;;;;;5036773;28;20448;-61
2023/05/04 12:26:42;;;;;;;4.90;4.50;;;25.50;40.70;;;;;;5036583;28;20451;-64
2023/05/04 12:29:07;;;;;;;5.50;5.00;;;25.30;41.60;;;;;;5034447;28;20222;-63
2023/05/04 12:31:33;;;;;;;6.23;5.30;;;25.40;41.50;;;;;;5039133;28;20215;-64
2023/05/04 12:33:58;;;;;;;5.53;5.03;;;25.30;41.40;;;;;;5041808;28;20439;-65
2023/05/04 12:36:24;;;;;;;5.30;4.83;;;25.40;41.70;;;;;;5040863;28;20201;-66
2023/05/04 12:38:49;;;;;;;5.27;4.80;;;25.40;41.90;;;;;;5019618;28;20185;-65
2023/05/04 12:41:15;;;;;;;7.47;5.30;;;25.40;42.30;;;;;;5033943;28;20772;-63
2023/05/04 12:43:41;;;;;;;6.10;5.60;;;25.30;42.60;;;;;;5043284;28;20245;-62
2023/05/04 12:46:07;;;;;;;6.10;5.60;;;25.30;41.80;;;;;;5041346;28;20172;-63